Portada
METAR-TAF:

METAR-TAF

Aeroports :

Nova Orleans, Louisiana, Estats Units d'Amèrica

latitud: 29-59-34N, longitud: 090-15-03W, altitud: 1 m

Observació

L'informe es va fer fa 53 minuts, a les 00:53 UTC
Vent 8 kt del Nord/Nord-Oest
Temperatura 12°C
Humitat 62%
Pressió 1023 hPa
Visibilitat: 16.1 km
Cel clar

METAR: KMSY 160053Z 34008KT 10SM CLR 12/05 A3021 RMK AO2 SLP232 T01220050

Hora: 19:46 (01:46 UTC)

Pronòstic

L'informe es va fer fa 2 hores i 26 minuts, a les 23:20 UTC
Pronòstic vàlid del 16 a les 00 UTC al 17 a les 06 UTC
Vent 9 kt del Nord
Visibilitat: 10 km
Cel clar
A partir de les 16 a les 1700 UTC
Vent 7 kt del Nord
Visibilitat: 10 km
Cel clar

TAF: KMSY 152320Z 1600/1706 36009KT P6SM SKC FM161700 35007KT P6SM SKC

Observacions i pronòstics meteorològics de més de 4000 aeroports (METAR i TAF).

Les estacions disponibles són els punts grocs i vermells al mapa.

Posi el ratolí al punt desitjat per veure el nom de l'estació.

Feu clic per veure les observacions i els pronòstics meteorològics.

Per canviar el mapa: feu clic els botons verds amb una creu de color negre per apropar; al botó verd amb un guió per allunyar la imatge; o en les fletxes verdes per a mapes adjacents.


METAR-TAF: